Metar Aviation Weather Data     LHBP Budapest Liszt Ferenc International Airport
Temperature
5°C Temperature
0°C Dewpoint
70% Humidity



Wind
27 KM/H
17 MPH
8 M/S
15 KTS



290°
WNW
Current Conditions

Mostly Scattered Clouds Mostly Scattered Clouds
Pressure 1018.92 (hPa) - 30.09 (inHg)
Visibility 6.2 (mile) - 10 (km)
Airport
Airport-code LHBP

Location: Budapest Liszt Ferenc International Airport
Distance: 14 (km)

Metar:
LHBP 160630Z 29015KT 9999 SCT017 05/M00 Q1019 NOSIG

Time: 2021-04-16 07:30 BST